Pensacola, FL

9:28 AM CDT en Octubre 02, 2014 (GMT -0500)
Scotto's Cove | Change Station
CLOSE
Current Station
Estación meteorológica personal
Location: Pensacola, FL
Altura: 75 ft
Estaciones meteorológicas cercanas

Alt 75 ft 30.44 °N, 87.19 °W | Updated 29 seconds ago

Parcialmente nublado
Parcialmente nublado
81.2 ° F
Sensación térmica 86 ° F
N
1.0
Viento Variable Viento desde SO
Gusts 2.0 mph

Hoy
Alta -- | Baja -- ° F
--% Posibilidad de precipitaciones
Ayer
Alta -- | Baja -- ° F
Precip. -- pul
6:42 AM 6:32 PM
Cuarto creciente, 59% visible
Presión 30.04 pul
Visibilidad 10.0 Millas
Nubes Baja 1900 ft
Índice de calor 86 ° F
Punto de rocío 73 ° F
Humedad 76%
Precipitaciones 0.00 pul
Espesor de la nieve No disponible.
UV 2 de una escala de 12
Polen 6.80 de una escala de 12
Ozono Buena
PM2.5 Buena
Flu Activity No disponible.
METAR KPNS 021353Z COR 00000KT 10SM FEW019 26/23 A3004 RMK AO2 SLP172 T02610228

More Conditions Fewer Conditions

Presión 30.04 pul
Visibilidad 10.0 Millas
Nubes Baja 1900 ft
Índice de calor 86 ° F
Punto de rocío 73 ° F
Humedad 76%
Precipitaciones 0.00 pul
Espesor de la nieve No disponible.
UV 2 de una escala de 12
Polen 6.80 de una escala de 12
Ozono Buena
PM2.5 Buena
Flu Activity No disponible.
METAR KPNS 021353Z COR 00000KT 10SM FEW019 26/23 A3004 RMK AO2 SLP172 T02610228

More Conditions Fewer Conditions

10-Day Weather Forecast

Almanac

Astronomía

Oct. 02, 2014 Salida Puesta
Hora real 6:42 AM CDT 6:32 PM CDT
Crepúsculo civil 6:18 AM CDT 6:56 PM CDT
Crepúsculo náutico 5:51 AM CDT 7:24 PM CDT
Crepúsculo astronómico 5:23 AM CDT 7:52 PM CDT
Luna 2:17 PM CDT 12:22 AM CDT
Horas de luz 12h 37m
Horas de luz
11h 49m
Tomorrow will be 1m 48s shorter.
Cuarto creciente, 59% of the Moon is Illuminated
Hoy
Cuarto creciente
Oct 8
Luna llena
Oct 15
Cuarto menguante
Oct 23
Nueva
Oct 30
Cuarto creciente

Extremos de hoy

Máximos del estado Bajos del estado

Community

WunderPhotos

Upload Photos

1,758,250 ¡fotos cargadas!

WunderBlogs® & News

By Dr. Jeff Masters
Director of Meteorology, Weather Underground
By Kari Strenfel
Meteorologist, Weather Underground
By Christopher C. Burt
Weather Historian, Weather Underground
October 2, 2014
October 2, 2014
October 2, 2014

Nearby

Calidad del aire

  Calidad del aire Índice AQ Contaminante
Ayer Buena
PM2.5
Ayer Buena
OZONE
Real Buena
PM2.5
Real Buena
OZONE
Jueves Buena
OZONE
Viernes Buena
OZONE
Sábado Buena
OZONE
Domingo Buena
OZONE
Lunes Buena
OZONE

Grosos de nieve

Estación Profundido Altura
No tenemos constancia de nieve nueva.

Actividad de terremotos

Ciudad Distance Mag. Tiempo y dato
No hay informes recientes de la actividad sísmica.
Magnitud mínima muestra es 2,5.

Temperaturas de aguas costeras

Lugar Temperatura
Sin partes meteorológicos de las estaciones

Estaciones meteorológicas cercanas